createdAt,value
2024-03-07T00:00:02.545Z,3.3
2024-03-07T00:15:02.997Z,3.1
2024-03-07T00:30:02.434Z,2.9
2024-03-07T00:45:02.849Z,2.6
2024-03-07T01:00:02.359Z,2.0
2024-03-07T01:15:02.801Z,1.4
2024-03-07T01:30:02.306Z,1.5
2024-03-07T01:45:02.551Z,1.6
2024-03-07T02:00:03.027Z,1.6
2024-03-07T02:15:02.547Z,1.4
2024-03-07T02:30:02.859Z,1.3
2024-03-07T02:45:02.327Z,1.1
2024-03-07T03:00:02.746Z,0.9
2024-03-07T03:15:03.329Z,0.8
2024-03-07T03:30:02.791Z,0.7
2024-03-07T03:45:02.313Z,0.3
2024-03-07T04:00:02.538Z,0.0
2024-03-07T04:15:02.968Z,0.0
2024-03-07T04:30:02.400Z,0.1
2024-03-07T04:45:02.804Z,0.0
2024-03-07T05:00:03.361Z,-0.1
2024-03-07T05:15:02.793Z,-0.4
2024-03-07T05:30:02.388Z,-0.4
2024-03-07T05:45:02.643Z,-0.6
2024-03-07T06:00:03.104Z,-0.5
2024-03-07T06:15:02.609Z,0.0
2024-03-07T06:30:02.931Z,0.6
2024-03-07T06:45:02.419Z,0.9
2024-03-07T07:00:02.884Z,1.0
2024-03-07T07:15:02.436Z,0.9
2024-03-07T07:30:02.696Z,1.1
2024-03-07T07:45:03.168Z,1.4
2024-03-07T08:00:02.551Z,2.0
2024-03-07T08:15:02.967Z,2.2
2024-03-07T08:30:02.466Z,2.2
2024-03-07T08:45:02.895Z,2.4
2024-03-07T09:00:02.542Z,2.7
2024-03-07T09:15:02.765Z,2.9
2024-03-07T09:30:02.188Z,3.1
2024-03-07T09:45:02.648Z,3.2
2024-03-07T10:00:03.049Z,3.5
2024-03-07T10:15:02.526Z,3.6
2024-03-07T10:30:03.049Z,3.9
2024-03-07T10:45:02.602Z,4.1
2024-03-07T11:00:02.878Z,4.1
2024-03-07T11:15:02.571Z,4.4
2024-03-07T11:30:03.922Z,4.7
2024-03-07T12:00:02.670Z,5.5
2024-03-07T12:15:03.035Z,5.6
2024-03-07T12:30:02.617Z,5.2
2024-03-07T12:45:03.007Z,4.9
2024-03-07T13:00:02.652Z,4.8
2024-03-07T13:30:02.228Z,5.7
2024-03-07T13:45:02.722Z,7.1
2024-03-07T14:00:03.208Z,7.0
2024-03-07T14:15:04.201Z,6.8
2024-03-07T14:30:03.001Z,7.2
2024-03-07T14:45:05.985Z,6.9
2024-03-07T15:00:04.515Z,6.1
2024-03-07T15:15:10.950Z,6.0
2024-03-07T15:30:02.842Z,6.3
2024-03-07T15:45:02.172Z,6.3
2024-03-07T16:00:02.664Z,6.1
2024-03-07T16:15:03.084Z,5.7
2024-03-07T16:30:02.556Z,5.5
2024-03-07T16:45:02.965Z,5.7
2024-03-07T17:00:02.562Z,5.8
2024-03-07T17:15:02.861Z,5.7
2024-03-07T17:30:02.318Z,5.4
2024-03-07T17:45:02.733Z,4.8
2024-03-07T18:00:03.382Z,4.5
2024-03-07T18:15:13.330Z,4.3
2024-03-07T18:30:03.054Z,4.0
2024-03-07T18:45:02.653Z,3.7
2024-03-07T19:00:02.927Z,3.6
2024-03-07T19:15:02.670Z,3.4
2024-03-07T19:30:02.949Z,3.4
2024-03-07T19:45:02.272Z,3.3
2024-03-07T20:00:02.760Z,3.3
2024-03-07T20:15:03.150Z,3.3
2024-03-07T20:30:02.610Z,3.1
2024-03-07T20:45:03.122Z,2.7
2024-03-07T21:00:02.672Z,2.3
2024-03-07T21:30:02.372Z,1.7
2024-03-07T21:45:02.907Z,1.2
2024-03-07T22:15:02.702Z,0.8
2024-03-07T22:30:01.996Z,0.3
2024-03-07T22:45:02.728Z,0.0
2024-03-07T23:00:03.249Z,-0.3
2024-03-07T23:15:03.379Z,-0.5
2024-03-07T23:30:02.835Z,-0.5
2024-03-07T23:45:02.251Z,-0.6
